createdAt,value
2018-12-31T00:00:35.465Z,1026.96
2018-12-31T00:01:35.449Z,1026.99
2018-12-31T00:02:35.465Z,1027.04
2018-12-31T00:03:35.236Z,1026.97
2018-12-31T00:04:35.234Z,1027.01
2018-12-31T00:05:35.435Z,1027.01
2018-12-31T00:06:35.229Z,1027.03
2018-12-31T00:07:35.435Z,1027.06
2018-12-31T00:08:35.417Z,1027.06
2018-12-31T00:09:35.415Z,1027.06
2018-12-31T00:10:35.198Z,1027.08
2018-12-31T00:11:35.400Z,1027.07
2018-12-31T00:12:35.399Z,1027.11
2018-12-31T00:13:35.193Z,1027.09
2018-12-31T00:14:35.198Z,1027.13
2018-12-31T00:15:35.186Z,1027.15
2018-12-31T00:16:35.167Z,1027.12
2018-12-31T00:17:35.172Z,1027.13
2018-12-31T00:18:35.170Z,1027.17
2018-12-31T00:19:35.364Z,1027.19
2018-12-31T00:20:35.161Z,1027.19
2018-12-31T00:21:35.343Z,1027.14
2018-12-31T00:22:35.144Z,1027.17
2018-12-31T00:23:35.337Z,1027.17
2018-12-31T00:24:35.122Z,1027.16
2018-12-31T00:25:35.125Z,1027.15
2018-12-31T00:26:35.121Z,1027.14
2018-12-31T00:27:35.121Z,1027.14
2018-12-31T00:28:35.123Z,1027.15
2018-12-31T00:29:35.113Z,1027.12
2018-12-31T00:30:35.094Z,1027.16
2018-12-31T00:31:35.096Z,1027.17
2018-12-31T00:32:35.081Z,1027.13
2018-12-31T00:33:35.095Z,1027.15
2018-12-31T00:34:35.103Z,1027.15
2018-12-31T00:35:35.082Z,1027.20
2018-12-31T00:36:35.079Z,1027.21
2018-12-31T00:37:35.061Z,1027.20
2018-12-31T00:38:35.253Z,1027.21
2018-12-31T00:39:35.259Z,1027.24
2018-12-31T00:40:35.041Z,1027.23
2018-12-31T00:41:35.039Z,1027.23
2018-12-31T00:42:35.245Z,1027.24
2018-12-31T00:43:35.029Z,1027.21
2018-12-31T00:44:35.015Z,1027.25
2018-12-31T00:45:35.011Z,1027.27
2018-12-31T00:46:35.014Z,1027.26
2018-12-31T00:47:35.000Z,1027.26
2018-12-31T00:48:34.999Z,1027.26
2018-12-31T00:49:34.998Z,1027.30
2018-12-31T00:50:35.194Z,1027.27
2018-12-31T00:51:35.048Z,1027.30
2018-12-31T00:52:35.178Z,1027.35
2018-12-31T00:53:34.969Z,1027.30
2018-12-31T00:54:35.166Z,1027.31
2018-12-31T00:55:35.090Z,1027.29
2018-12-31T00:56:34.956Z,1027.32
2018-12-31T00:57:34.954Z,1027.34
2018-12-31T00:58:34.946Z,1027.36
2018-12-31T00:59:34.946Z,1027.36
2018-12-31T01:00:35.137Z,1027.33
2018-12-31T01:01:34.923Z,1027.32
2018-12-31T01:02:34.928Z,1027.37
2018-12-31T01:03:34.912Z,1027.36
2018-12-31T01:04:34.914Z,1027.37
2018-12-31T01:05:34.915Z,1027.36
2018-12-31T01:06:34.900Z,1027.37
2018-12-31T01:07:34.895Z,1027.39
2018-12-31T01:08:34.904Z,1027.36
2018-12-31T01:09:34.893Z,1027.35
2018-12-31T01:10:34.884Z,1027.38
2018-12-31T01:11:34.884Z,1027.41
2018-12-31T01:12:35.081Z,1027.37
2018-12-31T01:13:34.892Z,1027.39
2018-12-31T01:14:35.060Z,1027.40
2018-12-31T01:15:34.915Z,1027.39
2018-12-31T01:16:34.856Z,1027.36
2018-12-31T01:17:34.852Z,1027.37
2018-12-31T01:18:34.831Z,1027.42
2018-12-31T01:19:34.849Z,1027.36
2018-12-31T01:20:34.839Z,1027.41
2018-12-31T01:21:34.822Z,1027.41
2018-12-31T01:22:35.035Z,1027.41
2018-12-31T01:23:34.822Z,1027.42
2018-12-31T01:24:34.826Z,1027.33
2018-12-31T01:25:35.013Z,1027.28
2018-12-31T01:26:34.795Z,1027.31
2018-12-31T01:27:34.992Z,1027.33
2018-12-31T01:28:34.784Z,1027.39
2018-12-31T01:29:34.985Z,1027.41
2018-12-31T01:30:34.802Z,1027.39
2018-12-31T01:31:34.981Z,1027.38
2018-12-31T01:32:34.760Z,1027.37
2018-12-31T01:33:34.961Z,1027.38
2018-12-31T01:34:34.955Z,1027.41
2018-12-31T01:35:34.765Z,1027.42
2018-12-31T01:36:34.941Z,1027.39
2018-12-31T01:37:34.748Z,1027.40
2018-12-31T01:38:34.736Z,1027.39
2018-12-31T01:39:34.722Z,1027.37
2018-12-31T01:40:34.721Z,1027.38
2018-12-31T01:41:34.716Z,1027.36
2018-12-31T01:42:34.713Z,1027.36
2018-12-31T01:43:34.913Z,1027.32
2018-12-31T01:44:34.712Z,1027.32
2018-12-31T01:45:34.692Z,1027.28
2018-12-31T01:46:34.692Z,1027.35
2018-12-31T01:47:34.714Z,1027.32
2018-12-31T01:48:34.692Z,1027.35
2018-12-31T01:49:34.681Z,1027.40
2018-12-31T01:50:34.671Z,1027.41
2018-12-31T01:51:34.677Z,1027.37
2018-12-31T01:52:34.867Z,1027.35
2018-12-31T01:53:34.654Z,1027.36
2018-12-31T01:54:34.661Z,1027.33
2018-12-31T01:55:34.645Z,1027.38
2018-12-31T01:56:34.664Z,1027.35
2018-12-31T01:57:34.858Z,1027.38
2018-12-31T01:58:34.639Z,1027.40
2018-12-31T01:59:34.623Z,1027.40
2018-12-31T02:00:34.611Z,1027.39
2018-12-31T02:01:34.607Z,1027.45
2018-12-31T02:02:34.621Z,1027.45
2018-12-31T02:03:34.613Z,1027.43
2018-12-31T02:04:34.602Z,1027.47
2018-12-31T02:05:34.587Z,1027.47
2018-12-31T02:06:34.600Z,1027.48
2018-12-31T02:07:34.587Z,1027.51
2018-12-31T02:08:34.582Z,1027.53
2018-12-31T02:09:36.294Z,1027.51
2018-12-31T02:10:34.564Z,1027.56
2018-12-31T02:11:34.561Z,1027.58
2018-12-31T02:12:34.572Z,1027.58
2018-12-31T02:13:34.567Z,1027.59
2018-12-31T02:14:34.558Z,1027.57
2018-12-31T02:15:34.545Z,1027.61
2018-12-31T02:16:34.544Z,1027.64
2018-12-31T02:17:34.536Z,1027.66
2018-12-31T02:18:34.528Z,1027.67
2018-12-31T02:19:34.530Z,1027.68
2018-12-31T02:20:34.516Z,1027.70
2018-12-31T02:21:34.528Z,1027.69
2018-12-31T02:22:34.509Z,1027.71
2018-12-31T02:23:34.711Z,1027.70
2018-12-31T02:24:34.512Z,1027.68
2018-12-31T02:25:34.497Z,1027.71
2018-12-31T02:26:34.480Z,1027.68
2018-12-31T02:27:34.480Z,1027.63
2018-12-31T02:28:34.475Z,1027.60
2018-12-31T02:29:34.473Z,1027.59
2018-12-31T02:30:34.459Z,1027.55
2018-12-31T02:31:34.475Z,1027.45
2018-12-31T02:32:34.459Z,1027.40
2018-12-31T02:33:34.480Z,1027.37
2018-12-31T02:34:34.471Z,1027.36
2018-12-31T02:35:34.448Z,1027.37
2018-12-31T02:36:34.429Z,1027.41
2018-12-31T02:37:34.426Z,1027.42
2018-12-31T02:38:34.638Z,1027.44
2018-12-31T02:39:34.423Z,1027.41
2018-12-31T02:40:34.416Z,1027.43
2018-12-31T02:41:34.433Z,1027.40
2018-12-31T02:42:34.396Z,1027.43
2018-12-31T02:43:34.400Z,1027.38
2018-12-31T02:44:34.423Z,1027.37
2018-12-31T02:45:34.406Z,1027.39
2018-12-31T02:46:34.386Z,1027.31
2018-12-31T02:47:34.387Z,1027.29
2018-12-31T02:48:34.574Z,1027.29
2018-12-31T02:49:34.385Z,1027.27
2018-12-31T02:50:34.356Z,1027.28
2018-12-31T02:51:34.564Z,1027.27
2018-12-31T02:52:34.367Z,1027.29
2018-12-31T02:53:34.347Z,1027.29
2018-12-31T02:54:34.545Z,1027.30
2018-12-31T02:55:34.333Z,1027.31
2018-12-31T02:56:34.335Z,1027.31
2018-12-31T02:57:34.559Z,1027.27
2018-12-31T02:58:34.327Z,1027.26
2018-12-31T02:59:34.327Z,1027.28
2018-12-31T03:00:34.520Z,1027.29
2018-12-31T03:01:34.514Z,1027.26
2018-12-31T03:02:34.317Z,1027.26
2018-12-31T03:03:34.529Z,1027.30
2018-12-31T03:04:34.298Z,1027.32
2018-12-31T03:05:34.344Z,1027.29
2018-12-31T03:06:34.285Z,1027.32
2018-12-31T03:07:34.289Z,1027.29
2018-12-31T03:08:34.473Z,1027.31
2018-12-31T03:09:34.284Z,1027.31
2018-12-31T03:10:34.468Z,1027.29
2018-12-31T03:11:34.271Z,1027.28
2018-12-31T03:12:34.266Z,1027.26
2018-12-31T03:13:34.244Z,1027.27
2018-12-31T03:14:34.239Z,1027.30
2018-12-31T03:15:34.309Z,1027.25
2018-12-31T03:16:34.229Z,1027.26
2018-12-31T03:17:34.227Z,1027.27
2018-12-31T03:18:34.237Z,1027.28
2018-12-31T03:19:34.222Z,1027.29
2018-12-31T03:20:34.221Z,1027.27
2018-12-31T03:21:34.423Z,1027.30
2018-12-31T03:22:34.202Z,1027.27
2018-12-31T03:23:34.409Z,1027.28
2018-12-31T03:24:34.192Z,1027.24
2018-12-31T03:25:34.217Z,1027.23
2018-12-31T03:26:34.182Z,1027.25
2018-12-31T03:27:34.190Z,1027.22
2018-12-31T03:28:34.169Z,1027.22
2018-12-31T03:29:34.164Z,1027.21
2018-12-31T03:30:34.166Z,1027.20
2018-12-31T03:31:34.187Z,1027.23
2018-12-31T03:32:34.163Z,1027.24
2018-12-31T03:33:34.159Z,1027.23
2018-12-31T03:34:34.153Z,1027.20
2018-12-31T03:35:34.339Z,1027.25
2018-12-31T03:36:34.136Z,1027.21
2018-12-31T03:37:34.345Z,1027.16
2018-12-31T03:38:34.121Z,1027.14
2018-12-31T03:39:34.318Z,1027.14
2018-12-31T03:40:34.126Z,1027.15
2018-12-31T03:41:34.131Z,1027.10
2018-12-31T03:42:34.106Z,1027.07
2018-12-31T03:43:34.099Z,1027.10
2018-12-31T03:44:34.093Z,1027.17
2018-12-31T03:45:34.088Z,1027.17
2018-12-31T03:46:34.304Z,1027.13
2018-12-31T03:47:34.074Z,1027.13
2018-12-31T03:48:34.085Z,1027.12
2018-12-31T03:49:34.067Z,1027.16
2018-12-31T03:50:34.277Z,1027.20
2018-12-31T03:51:34.056Z,1027.21
2018-12-31T03:52:34.262Z,1027.20
2018-12-31T03:53:34.260Z,1027.18
2018-12-31T03:54:34.043Z,1027.12
2018-12-31T03:55:34.052Z,1027.12
2018-12-31T03:56:34.028Z,1027.09
2018-12-31T03:57:34.236Z,1027.13
2018-12-31T03:58:34.030Z,1027.10
2018-12-31T03:59:34.030Z,1027.04
2018-12-31T04:00:34.015Z,1027.06
2018-12-31T04:01:34.033Z,1027.08
2018-12-31T04:02:34.016Z,1027.10
2018-12-31T04:03:34.013Z,1027.12
2018-12-31T04:04:33.989Z,1027.11
2018-12-31T04:05:34.191Z,1027.12
2018-12-31T04:06:33.984Z,1027.15
2018-12-31T04:07:34.187Z,1027.17
2018-12-31T04:08:33.999Z,1027.15
2018-12-31T04:09:35.059Z,1027.14
2018-12-31T04:10:33.960Z,1027.14
2018-12-31T04:11:33.967Z,1027.14
2018-12-31T04:12:33.955Z,1027.15
2018-12-31T04:13:34.152Z,1027.15
2018-12-31T04:14:33.942Z,1027.18
2018-12-31T04:15:33.946Z,1027.19
2018-12-31T04:16:34.141Z,1027.20
2018-12-31T04:17:34.149Z,1027.20
2018-12-31T04:18:34.141Z,1027.16
2018-12-31T04:19:33.923Z,1027.20
2018-12-31T04:20:34.121Z,1027.19
2018-12-31T04:21:34.108Z,1027.22
2018-12-31T04:22:33.908Z,1027.22
2018-12-31T04:23:33.903Z,1027.21
2018-12-31T04:24:34.030Z,1027.21
2018-12-31T04:25:34.103Z,1027.21
2018-12-31T04:26:33.883Z,1027.22
2018-12-31T04:27:33.875Z,1027.18
2018-12-31T04:28:33.885Z,1027.21
2018-12-31T04:29:33.886Z,1027.24
2018-12-31T04:30:33.864Z,1027.22
2018-12-31T04:31:33.857Z,1027.20
2018-12-31T04:32:33.855Z,1027.25
2018-12-31T04:33:33.858Z,1027.27
2018-12-31T04:34:33.843Z,1027.24
2018-12-31T04:35:33.836Z,1027.23
2018-12-31T04:36:33.833Z,1027.20
2018-12-31T04:37:33.841Z,1027.19
2018-12-31T04:38:34.026Z,1027.22
2018-12-31T04:39:34.022Z,1027.18
2018-12-31T04:40:34.031Z,1027.15
2018-12-31T04:41:33.826Z,1027.14
2018-12-31T04:42:33.818Z,1027.12
2018-12-31T04:43:33.803Z,1027.15
2018-12-31T04:44:34.000Z,1027.17
2018-12-31T04:45:33.803Z,1027.17
2018-12-31T04:46:33.799Z,1027.15
2018-12-31T04:47:33.783Z,1027.17
2018-12-31T04:48:33.782Z,1027.14
2018-12-31T04:49:33.769Z,1027.16
2018-12-31T04:50:33.981Z,1027.11
2018-12-31T04:51:33.763Z,1027.11
2018-12-31T04:52:33.756Z,1027.16
2018-12-31T04:53:33.958Z,1027.14
2018-12-31T04:54:33.954Z,1027.10
2018-12-31T04:55:33.956Z,1027.07
2018-12-31T04:56:33.945Z,1027.11
2018-12-31T04:57:33.735Z,1027.10
2018-12-31T04:58:33.743Z,1027.13
2018-12-31T04:59:33.719Z,1027.11
2018-12-31T05:00:33.719Z,1027.11
2018-12-31T05:01:33.722Z,1027.07
2018-12-31T05:02:33.719Z,1027.11
2018-12-31T05:03:33.913Z,1027.08
2018-12-31T05:04:33.700Z,1027.09
2018-12-31T05:05:33.692Z,1027.11
2018-12-31T05:06:33.889Z,1027.10
2018-12-31T05:07:33.909Z,1027.12
2018-12-31T05:08:33.672Z,1027.16
2018-12-31T05:09:33.668Z,1027.19
2018-12-31T05:10:33.663Z,1027.18
2018-12-31T05:11:33.666Z,1027.19
2018-12-31T05:12:33.674Z,1027.18
2018-12-31T05:13:33.873Z,1027.17
2018-12-31T05:14:33.639Z,1027.13
2018-12-31T05:15:33.650Z,1027.10
2018-12-31T05:16:33.842Z,1027.10
2018-12-31T05:17:33.642Z,1027.14
2018-12-31T05:18:33.657Z,1027.17
2018-12-31T05:19:33.635Z,1027.11
2018-12-31T05:20:33.622Z,1027.14
2018-12-31T05:21:33.613Z,1027.10
2018-12-31T05:22:33.606Z,1027.12
2018-12-31T05:23:33.617Z,1027.12
2018-12-31T05:24:33.613Z,1027.14
2018-12-31T05:25:33.600Z,1027.14
2018-12-31T05:26:33.583Z,1027.14
2018-12-31T05:27:33.581Z,1027.17
2018-12-31T05:28:33.583Z,1027.17
2018-12-31T05:29:33.577Z,1027.18
2018-12-31T05:30:33.569Z,1027.13
2018-12-31T05:31:33.561Z,1027.12
2018-12-31T05:32:33.573Z,1027.11
2018-12-31T05:33:33.552Z,1027.15
2018-12-31T05:34:33.748Z,1027.16
2018-12-31T05:35:33.544Z,1027.16
2018-12-31T05:36:33.537Z,1027.12
2018-12-31T05:37:33.541Z,1027.09
2018-12-31T05:38:33.530Z,1027.14
2018-12-31T05:39:33.744Z,1027.11
2018-12-31T05:40:33.738Z,1027.15
2018-12-31T05:41:33.514Z,1027.13
2018-12-31T05:42:33.508Z,1027.17
2018-12-31T05:43:33.509Z,1027.14
2018-12-31T05:44:33.702Z,1027.14
2018-12-31T05:45:33.701Z,1027.12
2018-12-31T05:46:33.490Z,1027.15
2018-12-31T05:47:33.496Z,1027.16
2018-12-31T05:48:33.477Z,1027.22
2018-12-31T05:49:33.683Z,1027.23
2018-12-31T05:50:33.680Z,1027.26
2018-12-31T05:51:33.468Z,1027.29
2018-12-31T05:52:33.461Z,1027.27
2018-12-31T05:53:33.658Z,1027.32
2018-12-31T05:54:33.469Z,1027.33
2018-12-31T05:55:33.446Z,1027.29
2018-12-31T05:56:33.451Z,1027.32
2018-12-31T05:57:33.442Z,1027.33
2018-12-31T05:58:33.631Z,1027.34
2018-12-31T05:59:33.425Z,1027.32
2018-12-31T06:00:33.427Z,1027.34
2018-12-31T06:01:33.413Z,1027.33
2018-12-31T06:02:33.407Z,1027.31
2018-12-31T06:03:33.409Z,1027.37
2018-12-31T06:04:33.406Z,1027.36
2018-12-31T06:05:33.392Z,1027.33
2018-12-31T06:06:33.402Z,1027.33
2018-12-31T06:07:33.403Z,1027.35
2018-12-31T06:08:33.604Z,1027.41
2018-12-31T06:09:33.376Z,1027.36
2018-12-31T06:10:33.371Z,1027.35
2018-12-31T06:11:33.363Z,1027.37
2018-12-31T06:12:33.363Z,1027.38
2018-12-31T06:13:33.359Z,1027.37
2018-12-31T06:14:33.362Z,1027.43
2018-12-31T06:15:33.344Z,1027.43
2018-12-31T06:16:33.357Z,1027.45
2018-12-31T06:17:33.351Z,1027.45
2018-12-31T06:18:33.329Z,1027.44
2018-12-31T06:19:33.335Z,1027.45
2018-12-31T06:20:33.343Z,1027.44
2018-12-31T06:21:33.519Z,1027.49
2018-12-31T06:22:33.323Z,1027.50
2018-12-31T06:23:33.306Z,1027.49
2018-12-31T06:24:33.529Z,1027.50
2018-12-31T06:25:33.496Z,1027.49
2018-12-31T06:26:33.293Z,1027.49
2018-12-31T06:27:33.499Z,1027.49
2018-12-31T06:28:33.297Z,1027.50
2018-12-31T06:29:33.283Z,1027.50
2018-12-31T06:30:33.285Z,1027.52
2018-12-31T06:31:33.264Z,1027.52
2018-12-31T06:32:33.272Z,1027.55
2018-12-31T06:33:33.255Z,1027.56
2018-12-31T06:34:33.255Z,1027.59
2018-12-31T06:35:33.247Z,1027.58
2018-12-31T06:36:33.247Z,1027.59
2018-12-31T06:37:33.232Z,1027.59
2018-12-31T06:38:33.243Z,1027.62
2018-12-31T06:39:33.221Z,1027.59
2018-12-31T06:40:33.219Z,1027.62
2018-12-31T06:41:33.215Z,1027.65
2018-12-31T06:42:33.211Z,1027.67
2018-12-31T06:43:33.201Z,1027.67
2018-12-31T06:44:33.219Z,1027.66
2018-12-31T06:45:33.194Z,1027.67
2018-12-31T06:46:33.202Z,1027.70
2018-12-31T06:47:33.182Z,1027.72
2018-12-31T06:48:33.189Z,1027.68
2018-12-31T06:49:33.191Z,1027.71
2018-12-31T06:50:33.191Z,1027.74
2018-12-31T06:51:33.164Z,1027.77
2018-12-31T06:52:33.370Z,1027.74
2018-12-31T06:53:33.162Z,1027.75
2018-12-31T06:54:33.370Z,1027.71
2018-12-31T06:55:33.149Z,1027.76
2018-12-31T06:56:33.159Z,1027.74
2018-12-31T06:57:33.134Z,1027.78
2018-12-31T06:58:33.328Z,1027.81
2018-12-31T06:59:33.123Z,1027.81
2018-12-31T07:00:33.115Z,1027.81
2018-12-31T07:01:33.320Z,1027.80
2018-12-31T07:02:33.108Z,1027.82
2018-12-31T07:03:33.110Z,1027.86
2018-12-31T07:04:33.101Z,1027.86
2018-12-31T07:05:33.093Z,1027.84
2018-12-31T07:06:33.288Z,1027.88
2018-12-31T07:07:33.081Z,1027.88
2018-12-31T07:08:33.080Z,1027.89
2018-12-31T07:09:33.071Z,1027.92
2018-12-31T07:10:33.063Z,1027.96
2018-12-31T07:11:33.267Z,1027.95
2018-12-31T07:12:33.064Z,1027.95
2018-12-31T07:13:33.253Z,1027.95
2018-12-31T07:14:33.036Z,1027.92
2018-12-31T07:15:33.033Z,1027.88
2018-12-31T07:16:33.037Z,1027.91
2018-12-31T07:17:33.232Z,1027.94
2018-12-31T07:18:33.037Z,1027.91
2018-12-31T07:19:33.219Z,1027.93
2018-12-31T07:20:33.018Z,1027.95
2018-12-31T07:22:33.001Z,1027.91
2018-12-31T07:23:33.003Z,1027.88
2018-12-31T07:24:32.994Z,1027.93
2018-12-31T07:25:32.984Z,1027.88
2018-12-31T07:26:32.978Z,1027.95
2018-12-31T07:27:33.179Z,1027.95
2018-12-31T07:28:32.967Z,1027.93
2018-12-31T07:29:32.971Z,1027.90
2018-12-31T07:30:32.961Z,1027.95
2018-12-31T07:31:32.964Z,1027.97
2018-12-31T07:32:33.243Z,1028.01
2018-12-31T07:33:32.955Z,1027.99
2018-12-31T07:34:32.951Z,1027.99
2018-12-31T07:35:32.947Z,1027.94
2018-12-31T07:36:32.953Z,1027.98
2018-12-31T07:37:32.928Z,1027.98
2018-12-31T07:38:32.920Z,1028.03
2018-12-31T07:39:32.914Z,1027.99
2018-12-31T07:40:32.905Z,1027.99
2018-12-31T07:41:32.905Z,1028.01
2018-12-31T07:42:32.915Z,1027.98
2018-12-31T07:43:32.910Z,1027.99
2018-12-31T07:44:32.909Z,1028.02
2018-12-31T07:45:33.090Z,1028.03
2018-12-31T07:46:32.896Z,1028.02
2018-12-31T07:47:32.884Z,1028.01
2018-12-31T07:48:32.886Z,1028.04
2018-12-31T07:49:32.884Z,1028.07
2018-12-31T07:50:32.884Z,1028.08
2018-12-31T07:51:32.878Z,1028.08
2018-12-31T07:52:32.860Z,1028.10
2018-12-31T07:53:32.839Z,1028.10
2018-12-31T07:54:32.842Z,1028.10
2018-12-31T07:55:32.843Z,1028.19
2018-12-31T07:56:32.841Z,1028.18
2018-12-31T07:57:32.831Z,1028.16
2018-12-31T07:58:32.823Z,1028.20
2018-12-31T07:59:32.833Z,1028.25
2018-12-31T08:00:32.807Z,1028.22
2018-12-31T08:01:32.821Z,1028.26
2018-12-31T08:02:32.805Z,1028.22
2018-12-31T08:03:32.796Z,1028.26
2018-12-31T08:04:32.814Z,1028.26
2018-12-31T08:05:32.789Z,1028.28
2018-12-31T08:06:32.803Z,1028.34
2018-12-31T08:07:32.796Z,1028.32
2018-12-31T08:08:32.777Z,1028.31
2018-12-31T08:09:32.779Z,1028.32
2018-12-31T08:10:32.757Z,1028.38
2018-12-31T08:11:32.767Z,1028.30
2018-12-31T08:12:32.744Z,1028.29
2018-12-31T08:13:32.764Z,1028.32
2018-12-31T08:14:32.748Z,1028.36
2018-12-31T08:15:32.734Z,1028.36
2018-12-31T08:16:32.939Z,1028.39
2018-12-31T08:17:32.723Z,1028.35
2018-12-31T08:18:32.732Z,1028.35
2018-12-31T08:19:32.712Z,1028.36
2018-12-31T08:20:32.715Z,1028.38
2018-12-31T08:21:32.704Z,1028.40
2018-12-31T08:22:32.710Z,1028.43
2018-12-31T08:23:32.700Z,1028.41
2018-12-31T08:24:32.696Z,1028.43
2018-12-31T08:25:32.880Z,1028.39
2018-12-31T08:26:32.879Z,1028.43
2018-12-31T08:27:32.670Z,1028.46
2018-12-31T08:28:32.666Z,1028.47
2018-12-31T08:29:32.663Z,1028.50
2018-12-31T08:30:32.676Z,1028.49
2018-12-31T08:31:32.667Z,1028.46
2018-12-31T08:32:32.638Z,1028.49
2018-12-31T08:33:32.645Z,1028.47
2018-12-31T08:34:32.636Z,1028.44
2018-12-31T08:35:32.655Z,1028.45
2018-12-31T08:36:32.660Z,1028.47
2018-12-31T08:37:32.640Z,1028.46
2018-12-31T08:38:32.626Z,1028.44
2018-12-31T08:39:32.819Z,1028.44
2018-12-31T08:40:32.623Z,1028.46
2018-12-31T08:41:32.613Z,1028.46
2018-12-31T08:42:32.592Z,1028.43
2018-12-31T08:43:32.594Z,1028.46
2018-12-31T08:44:32.786Z,1028.46
2018-12-31T08:45:32.574Z,1028.53
2018-12-31T08:46:32.586Z,1028.50
2018-12-31T08:47:32.565Z,1028.53
2018-12-31T08:48:32.557Z,1028.50
2018-12-31T08:49:32.556Z,1028.55
2018-12-31T08:50:32.754Z,1028.57
2018-12-31T08:51:32.556Z,1028.56
2018-12-31T08:52:32.557Z,1028.59
2018-12-31T08:53:32.541Z,1028.55
2018-12-31T08:54:32.526Z,1028.61
2018-12-31T08:55:32.520Z,1028.57
2018-12-31T08:56:32.753Z,1028.61
2018-12-31T08:57:32.557Z,1028.63
2018-12-31T08:58:32.514Z,1028.63
2018-12-31T08:59:32.532Z,1028.64
2018-12-31T09:00:32.522Z,1028.60
2018-12-31T09:01:32.507Z,1028.64
2018-12-31T09:02:32.506Z,1028.62
2018-12-31T09:03:32.509Z,1028.59
2018-12-31T09:04:32.493Z,1028.57
2018-12-31T09:05:32.491Z,1028.60
2018-12-31T09:06:32.504Z,1028.58
2018-12-31T09:07:32.464Z,1028.58
2018-12-31T09:08:32.481Z,1028.58
2018-12-31T09:09:32.455Z,1028.62
2018-12-31T09:10:32.449Z,1028.60
2018-12-31T09:11:32.454Z,1028.61
2018-12-31T09:12:32.449Z,1028.62
2018-12-31T09:13:32.447Z,1028.62
2018-12-31T09:14:32.429Z,1028.62
2018-12-31T09:15:32.416Z,1028.61
2018-12-31T09:16:32.433Z,1028.62
2018-12-31T09:17:32.475Z,1028.61
2018-12-31T09:18:32.407Z,1028.63
2018-12-31T09:19:32.399Z,1028.63
2018-12-31T09:20:32.407Z,1028.60
2018-12-31T09:21:32.420Z,1028.59
2018-12-31T09:22:32.385Z,1028.59
2018-12-31T09:23:32.380Z,1028.65
2018-12-31T09:24:32.383Z,1028.63
2018-12-31T09:25:32.380Z,1028.64
2018-12-31T09:26:32.374Z,1028.64
2018-12-31T09:27:32.360Z,1028.58
2018-12-31T09:28:32.350Z,1028.61
2018-12-31T09:29:32.554Z,1028.60
2018-12-31T09:30:32.540Z,1028.59
2018-12-31T09:31:32.335Z,1028.61
2018-12-31T09:32:32.333Z,1028.60
2018-12-31T09:33:32.321Z,1028.60
2018-12-31T09:34:32.314Z,1028.58
2018-12-31T09:35:32.519Z,1028.60
2018-12-31T09:36:32.317Z,1028.60
2018-12-31T09:37:32.318Z,1028.58
2018-12-31T09:38:32.309Z,1028.57
2018-12-31T09:39:32.293Z,1028.56
2018-12-31T09:40:32.287Z,1028.60
2018-12-31T09:41:32.306Z,1028.57
2018-12-31T09:42:32.489Z,1028.58
2018-12-31T09:43:32.274Z,1028.61
2018-12-31T09:44:32.281Z,1028.58
2018-12-31T09:45:32.265Z,1028.56
2018-12-31T09:46:32.255Z,1028.57
2018-12-31T09:47:33.866Z,1028.60
2018-12-31T09:48:32.245Z,1028.60
2018-12-31T09:49:32.261Z,1028.61
2018-12-31T09:50:32.242Z,1028.59
2018-12-31T09:51:32.232Z,1028.62
2018-12-31T09:52:32.223Z,1028.63
2018-12-31T09:53:32.221Z,1028.62
2018-12-31T09:54:32.216Z,1028.62
2018-12-31T09:55:32.214Z,1028.67
2018-12-31T09:56:32.208Z,1028.69
2018-12-31T09:57:32.226Z,1028.69
2018-12-31T09:58:32.192Z,1028.72
2018-12-31T09:59:32.187Z,1028.69
2018-12-31T10:00:32.197Z,1028.72
2018-12-31T10:01:32.194Z,1028.73
2018-12-31T10:02:32.172Z,1028.71
2018-12-31T10:03:32.196Z,1028.70
2018-12-31T10:04:32.160Z,1028.71
2018-12-31T10:05:32.156Z,1028.71
2018-12-31T10:06:32.154Z,1028.67
2018-12-31T10:07:32.154Z,1028.71
2018-12-31T10:08:32.156Z,1028.67
2018-12-31T10:09:32.149Z,1028.72
2018-12-31T10:10:32.133Z,1028.71
2018-12-31T10:11:32.143Z,1028.71
2018-12-31T10:12:32.136Z,1028.75
2018-12-31T10:13:32.129Z,1028.73
2018-12-31T10:14:32.112Z,1028.66
2018-12-31T10:15:32.112Z,1028.67
2018-12-31T10:16:32.116Z,1028.65
2018-12-31T10:17:32.092Z,1028.69
2018-12-31T10:18:32.124Z,1028.68
2018-12-31T10:19:32.081Z,1028.64
2018-12-31T10:20:32.088Z,1028.63
2018-12-31T10:21:32.083Z,1028.67
2018-12-31T10:22:32.088Z,1028.66
2018-12-31T10:23:32.061Z,1028.69
2018-12-31T10:24:32.086Z,1028.72
2018-12-31T10:25:32.059Z,1028.72
2018-12-31T10:26:32.059Z,1028.71
2018-12-31T10:27:32.059Z,1028.73
2018-12-31T10:28:32.040Z,1028.72
2018-12-31T10:29:36.019Z,1028.70
2018-12-31T10:30:32.038Z,1028.71
2018-12-31T10:31:32.047Z,1028.74
2018-12-31T10:32:32.030Z,1028.72
2018-12-31T10:33:32.013Z,1028.74
2018-12-31T10:34:32.014Z,1028.72
2018-12-31T10:35:32.034Z,1028.74
2018-12-31T10:36:32.018Z,1028.71
2018-12-31T10:37:32.006Z,1028.74
2018-12-31T10:38:31.999Z,1028.73
2018-12-31T10:39:32.006Z,1028.71
2018-12-31T10:40:31.990Z,1028.73
2018-12-31T10:41:31.979Z,1028.80
2018-12-31T10:42:31.989Z,1028.75
2018-12-31T10:43:31.978Z,1028.77
2018-12-31T10:44:32.028Z,1028.74
2018-12-31T10:45:31.983Z,1028.77
2018-12-31T10:46:31.958Z,1028.75
2018-12-31T10:47:31.945Z,1028.74
2018-12-31T10:48:31.958Z,1028.77
2018-12-31T10:49:32.150Z,1028.79
2018-12-31T10:50:31.947Z,1028.78
2018-12-31T10:51:31.928Z,1028.73
2018-12-31T10:52:32.123Z,1028.78
2018-12-31T10:53:31.921Z,1028.74
2018-12-31T10:54:32.110Z,1028.74
2018-12-31T10:55:31.908Z,1028.74
2018-12-31T10:56:31.904Z,1028.72
2018-12-31T10:57:31.898Z,1028.69
2018-12-31T10:58:32.089Z,1028.69
2018-12-31T10:59:31.894Z,1028.67
2018-12-31T11:00:31.885Z,1028.69
2018-12-31T11:01:31.876Z,1028.70
2018-12-31T11:02:31.870Z,1028.68
2018-12-31T11:03:31.859Z,1028.64
2018-12-31T11:04:32.068Z,1028.65
2018-12-31T11:05:31.852Z,1028.68
2018-12-31T11:06:31.863Z,1028.65
2018-12-31T11:07:31.869Z,1028.61
2018-12-31T11:08:31.857Z,1028.57
2018-12-31T11:09:31.863Z,1028.58
2018-12-31T11:10:31.856Z,1028.55
2018-12-31T11:11:31.825Z,1028.55
2018-12-31T11:12:31.831Z,1028.57
2018-12-31T11:13:31.811Z,1028.54
2018-12-31T11:14:31.832Z,1028.56
2018-12-31T11:15:31.816Z,1028.52
2018-12-31T11:16:31.799Z,1028.52
2018-12-31T11:17:31.804Z,1028.55
2018-12-31T11:18:31.813Z,1028.50
2018-12-31T11:19:33.442Z,1028.49
2018-12-31T11:20:31.796Z,1028.48
2018-12-31T11:21:31.799Z,1028.48
2018-12-31T11:22:31.784Z,1028.42
2018-12-31T11:23:31.763Z,1028.41
2018-12-31T11:24:31.770Z,1028.44
2018-12-31T11:25:31.768Z,1028.44
2018-12-31T11:26:31.748Z,1028.43
2018-12-31T11:27:31.744Z,1028.41
2018-12-31T11:28:31.765Z,1028.44
2018-12-31T11:29:31.742Z,1028.43
2018-12-31T11:30:31.927Z,1028.48
2018-12-31T11:31:31.732Z,1028.48
2018-12-31T11:32:31.724Z,1028.51
2018-12-31T11:33:31.932Z,1028.51
2018-12-31T11:34:31.722Z,1028.45
2018-12-31T11:35:31.904Z,1028.44
2018-12-31T11:36:32.520Z,1028.44
2018-12-31T11:37:34.815Z,1028.44
2018-12-31T11:38:31.693Z,1028.48
2018-12-31T11:39:31.692Z,1028.43
2018-12-31T11:40:31.679Z,1028.43
2018-12-31T11:41:31.678Z,1028.41
2018-12-31T11:42:31.677Z,1028.37
2018-12-31T11:43:31.662Z,1028.35
2018-12-31T11:44:31.866Z,1028.34
2018-12-31T11:45:31.668Z,1028.32
2018-12-31T11:46:31.647Z,1028.29
2018-12-31T11:47:31.647Z,1028.35
2018-12-31T11:48:31.645Z,1028.29
2018-12-31T11:49:31.645Z,1028.31
2018-12-31T11:50:31.631Z,1028.26
2018-12-31T11:51:31.621Z,1028.25
2018-12-31T11:52:31.623Z,1028.27
2018-12-31T11:53:31.623Z,1028.24
2018-12-31T11:54:31.644Z,1028.22
2018-12-31T11:55:31.623Z,1028.19
2018-12-31T11:56:31.605Z,1028.20
2018-12-31T11:57:31.599Z,1028.16
2018-12-31T11:58:31.604Z,1028.19
2018-12-31T11:59:31.586Z,1028.19
2018-12-31T12:00:31.776Z,1028.14
2018-12-31T12:01:31.581Z,1028.14
2018-12-31T12:02:31.562Z,1028.18
2018-12-31T12:03:31.568Z,1028.11
2018-12-31T12:04:31.563Z,1028.11
2018-12-31T12:05:31.551Z,1028.08
2018-12-31T12:06:31.556Z,1028.08